Crosby Carrier — WDF5669 — position and weather

sailwx.info

Track history (hours):
 
Tides and Currents Weather Stations Pressure Air Temp Water Temp Dewpoint Dewpoint Depression Visibility Wind Speed Wind Dir Waves Ship Positions

Crosby Carrier

Owner: Crosby Marine Transportation LLC, Golden Meadow, LA. More information available from US FCC via Universal Licensing System and Coast Guard Vessel Documentation Center.

Last reported at 2018-Jun-21 16:08 UTC. Time now 2018-Jun-22 05:34 UTC.
Position N 29°33' W 090°27'.

Length 21 m; draft 2.3 m.

Type: Ship. MMSI: 367465960.

Date/timePositionNaut miles runAvg speedWind from/ knotsBaromVisibWave heightAir tempDewpointWater temp
2018-Jun-21 16:08N 29°33' W 090°27'1 8.8
2018-Jun-21 16:00N 29°34' W 090°28'4 8.8
2018-Jun-21 15:30N 29°34' W 090°33'4 8.0
2018-Jun-21 15:00N 29°35' W 090°38'4 7.9
2018-Jun-21 14:30N 29°37' W 090°42'3 6.0
2018-Jun-21 14:00N 29°34' W 090°43'1 2.6
2018-Jun-21 13:30N 29°33' W 090°42'0 0.0
2018-Jun-21 13:00N 29°33' W 090°42'0 0.0
2018-Jun-21 12:30N 29°33' W 090°42'0 0.0
2018-Jun-21 12:00N 29°33' W 090°42'0 0.0
2018-Jun-21 11:30N 29°33' W 090°42'0 0.0
2018-Jun-21 11:00N 29°33' W 090°42'0 0.0
2018-Jun-21 10:30N 29°33' W 090°42'0 0.0
2018-Jun-21 10:00N 29°33' W 090°42'0 0.0
2018-Jun-21 09:30N 29°33' W 090°42'0 0.0
2018-Jun-21 09:00N 29°33' W 090°42'0 0.0
2018-Jun-21 08:30N 29°33' W 090°42'0 0.0
2018-Jun-21 08:00N 29°33' W 090°42'0 0.0
2018-Jun-21 07:30N 29°33' W 090°42'0 0.0
2018-Jun-21 07:00N 29°33' W 090°42'0 0.0
2018-Jun-21 06:30N 29°33' W 090°42'0 0.0
2018-Jun-21 06:00N 29°33' W 090°42'0 0.0
2018-Jun-21 05:30N 29°33' W 090°42'0 0.0
2018-Jun-21 05:00N 29°33' W 090°42'0 0.0
2018-Jun-21 04:30N 29°33' W 090°42'0 0.0
2018-Jun-21 04:00N 29°33' W 090°42'0 0.0
2018-Jun-21 03:30N 29°33' W 090°42'0 0.0
2018-Jun-21 03:00N 29°33' W 090°42'0 0.0
2018-Jun-21 02:30N 29°33' W 090°42'0 0.0
2018-Jun-21 02:00N 29°33' W 090°42'0 0.0
2018-Jun-21 01:30N 29°33' W 090°42'0 0.0
2018-Jun-21 01:00N 29°33' W 090°42'0 0.0
2018-Jun-21 00:30N 29°33' W 090°42'3 5.4
2018-Jun-21 00:00N 29°30' W 090°43'4 8.6
2018-Jun-20 23:30N 29°26' W 090°43'3 0.2
2018-Jun-20 06:41N 29°22' W 090°44'1 3.6
2018-Jun-20 06:30N 29°23' W 090°44'2 3.9
2018-Jun-20 06:00N 29°25' W 090°43'2 4.1
2018-Jun-20 05:30N 29°27' W 090°43'2 4.0
2018-Jun-20 05:00N 29°29' W 090°43'2 4.0
2018-Jun-20 04:29N 29°31' W 090°42'2 3.9
2018-Jun-20 04:00N 29°33' W 090°42'1 2.7
2018-Jun-20 03:29N 29°34' W 090°43'0 0.1
2018-Jun-20 03:00N 29°34' W 090°43'0 0.0
2018-Jun-20 02:30N 29°34' W 090°43'0 0.0
2018-Jun-20 02:00N 29°34' W 090°43'0 0.0
2018-Jun-20 01:29N 29°34' W 090°43'0 0.0
2018-Jun-20 00:59N 29°34' W 090°43'0 0.0
2018-Jun-20 00:30N 29°34' W 090°43'0 0.0
2018-Jun-20 00:00N 29°34' W 090°43'0 0.0
2018-Jun-19 23:29N 29°34' W 090°43'0 0.0
2018-Jun-19 23:00N 29°34' W 090°43'0 0.0
2018-Jun-19 22:30N 29°34' W 090°43'0 0.0
2018-Jun-19 21:59N 29°34' W 090°43'0 0.0
2018-Jun-19 21:30N 29°34' W 090°43'0 0.0
2018-Jun-19 21:00N 29°34' W 090°43'0 0.0
2018-Jun-19 20:30N 29°34' W 090°43'0 0.0
2018-Jun-19 20:00N 29°34' W 090°43'0 0.0
2018-Jun-19 19:30N 29°34' W 090°43'0 0.0
2018-Jun-19 19:00N 29°34' W 090°43'0 0.0
2018-Jun-19 18:29N 29°34' W 090°43'0 0.0
2018-Jun-19 18:00N 29°34' W 090°43'0 0.0
2018-Jun-19 17:29N 29°34' W 090°43'0 0.0
2018-Jun-19 17:00N 29°34' W 090°43'0 0.0
2018-Jun-19 16:30N 29°34' W 090°43'0 0.7
2018-Jun-19 16:00N 29°34' W 090°43'3 5.2
2018-Jun-19 15:30N 29°36' W 090°41'3 5.0
2018-Jun-19 15:00N 29°35' W 090°38'2 4.6
2018-Jun-19 14:30N 29°35' W 090°36'0 0.0
2018-Jun-19 14:00N 29°35' W 090°36'0 0.0
2018-Jun-19 13:25N 29°35' W 090°36'0 0.0
2018-Jun-19 11:50N 29°35' W 090°36'0 0.0
2018-Jun-19 11:28N 29°35' W 090°36'0 0.0
2018-Jun-19 11:00N 29°35' W 090°36'0 0.0
2018-Jun-19 10:28N 29°35' W 090°36'0 0.0
2018-Jun-19 09:43N 29°35' W 090°36'0 0.0
2018-Jun-19 09:25N 29°35' W 090°36'0 0.0
2018-Jun-19 08:58N 29°35' W 090°36'0 0.0
2018-Jun-19 08:28N 29°35' W 090°36'0 0.0
2018-Jun-19 08:00N 29°35' W 090°36'0 0.0
2018-Jun-19 07:30N 29°35' W 090°36'0 0.0
2018-Jun-19 06:59N 29°35' W 090°36'0 0.0
2018-Jun-19 06:28N 29°35' W 090°36'0 0.0
2018-Jun-19 05:55N 29°35' W 090°36'0 0.0
2018-Jun-19 05:28N 29°35' W 090°36'0 0.0
2018-Jun-19 04:52N 29°35' W 090°36'0 0.0
2018-Jun-19 04:21N 29°35' W 090°36'0 0.0
2018-Jun-19 03:54N 29°35' W 090°36'0 0.0
2018-Jun-19 03:28N 29°35' W 090°36'0 0.0
2018-Jun-19 03:00N 29°35' W 090°36'0 0.0
2018-Jun-19 02:27N 29°35' W 090°36'0 0.0
2018-Jun-19 01:59N 29°35' W 090°36'0 0.0
2018-Jun-19 01:29N 29°35' W 090°36'0 0.0
2018-Jun-19 00:58N 29°35' W 090°36'0 0.0
2018-Jun-19 00:29N 29°35' W 090°36'0 0.0
2018-Jun-18 23:50N 29°35' W 090°36'0 0.0
2018-Jun-18 23:14N 29°35' W 090°36'0 0.0
2018-Jun-18 23:00N 29°35' W 090°36'0 0.0
2018-Jun-18 22:24N 29°35' W 090°36'0 0.0
2018-Jun-18 21:40N 29°35' W 090°36'0 0.0
2018-Jun-18 21:30N 29°35' W 090°36'0 0.0
2018-Jun-18 20:48N 29°35' W 090°36'0 0.0
2018-Jun-18 20:24N 29°35' W 090°36'0 0.0
2018-Jun-18 19:49N 29°35' W 090°36'0 0.0
2018-Jun-18 19:30N 29°35' W 090°36'0 0.0
2018-Jun-18 18:59N 29°35' W 090°36'0 0.0
2018-Jun-18 18:29N 29°35' W 090°36'0 0.0
2018-Jun-18 17:59N 29°35' W 090°36'0 0.0
2018-Jun-18 17:29N 29°35' W 090°36'0 0.0
2018-Jun-18 17:00N 29°35' W 090°36'0 0.0
2018-Jun-18 16:25N 29°35' W 090°36'0 0.0
2018-Jun-18 15:58N 29°35' W 090°36'0 0.0
2018-Jun-18 15:01N 29°35' W 090°36'0 0.0
2018-Jun-18 14:53N 29°35' W 090°36'0 0.0
2018-Jun-18 14:30N 29°35' W 090°36'0 0.0
2018-Jun-18 14:00N 29°35' W 090°36'0 0.0
2018-Jun-18 13:22N 29°35' W 090°36'0 0.0
2018-Jun-18 12:59N 29°35' W 090°36'0 0.0
2018-Jun-18 12:28N 29°35' W 090°36'0 0.0
2018-Jun-18 11:32N 29°35' W 090°36'0 2.2
2018-Jun-18 11:30N 29°35' W 090°36'0 0.5
2018-Jun-18 11:00N 29°35' W 090°36'1 1.1
2018-Jun-18 10:30N 29°35' W 090°35'3 5.5
2018-Jun-18 10:00N 29°34' W 090°32'3 5.3
2018-Jun-18 09:30N 29°34' W 090°29'3 5.5
2018-Jun-18 08:58N 29°33' W 090°26'2 0.1
2018-Jun-16 22:42N 29°34' W 090°29'2 8.9
2018-Jun-16 22:29N 29°34' W 090°31'4 8.4
2018-Jun-16 22:00N 29°35' W 090°35'4 8.3
2018-Jun-16 21:30N 29°36' W 090°40'3 5.4
2018-Jun-16 21:00N 29°35' W 090°43'3 5.3
2018-Jun-16 20:30N 29°33' W 090°42'0 0.0
2018-Jun-16 20:00N 29°33' W 090°42'0 0.0
2018-Jun-16 19:30N 29°33' W 090°42'0 0.0
2018-Jun-16 19:00N 29°33' W 090°42'0 0.0
2018-Jun-16 18:30N 29°33' W 090°42'0 0.0
2018-Jun-16 18:00N 29°33' W 090°42'0 0.0
2018-Jun-16 17:30N 29°33' W 090°42'0 0.0
2018-Jun-16 17:00N 29°33' W 090°42'0 0.0
2018-Jun-16 16:30N 29°33' W 090°42'0 0.0
2018-Jun-16 16:00N 29°33' W 090°42'2 3.2
2018-Jun-16 15:30N 29°34' W 090°43'2 4.9
2018-Jun-16 15:00N 29°33' W 090°45'4 7.5
2018-Jun-16 14:30N 29°32' W 090°50'2 0.1
2018-Jun-15 14:53N 29°32' W 090°52'3 8.1
2018-Jun-15 14:30N 29°32' W 090°48'4 7.1
2018-Jun-15 14:00N 29°34' W 090°45'2 3.2
2018-Jun-15 13:30N 29°34' W 090°43'1 2.4
2018-Jun-15 13:00N 29°33' W 090°42'0 0.0
2018-Jun-15 12:30N 29°33' W 090°42'0 0.0
2018-Jun-15 12:00N 29°33' W 090°42'0 0.0
2018-Jun-15 11:30N 29°33' W 090°42'0 0.0
2018-Jun-15 11:00N 29°33' W 090°42'0 0.0
2018-Jun-15 10:30N 29°33' W 090°42'0 0.0
2018-Jun-15 10:00N 29°33' W 090°42'0 0.0
2018-Jun-15 09:30N 29°33' W 090°42'0 0.0
2018-Jun-15 09:00N 29°33' W 090°42'0 0.0
2018-Jun-15 08:30N 29°33' W 090°42'0 0.0
2018-Jun-15 08:00N 29°33' W 090°42'0 0.0
2018-Jun-15 07:30N 29°33' W 090°42'0 0.0
2018-Jun-15 07:00N 29°33' W 090°42'0 0.0
2018-Jun-15 06:30N 29°33' W 090°42'0 0.0
2018-Jun-15 06:00N 29°33' W 090°42'0 0.0
2018-Jun-15 05:30N 29°33' W 090°42'0 0.0
2018-Jun-15 05:00N 29°33' W 090°42'0 0.0
2018-Jun-15 04:30N 29°33' W 090°42'0 0.0
2018-Jun-15 04:00N 29°33' W 090°42'0 0.0
2018-Jun-15 03:30N 29°33' W 090°42'0 0.0
2018-Jun-15 03:00N 29°33' W 090°42'0 0.0
2018-Jun-15 02:30N 29°33' W 090°42'1 1.7
2018-Jun-15 02:00N 29°33' W 090°43'3 6.7
2018-Jun-15 01:30N 29°37' W 090°42'2 3.7
2018-Jun-15 01:00N 29°36' W 090°40'0 0.0
2018-Jun-15 00:30N 29°36' W 090°40'0 0.0
2018-Jun-15 00:00N 29°36' W 090°40'2 4.9
2018-Jun-14 23:30N 29°36' W 090°43'2 4.1
2018-Jun-14 23:00N 29°34' W 090°43'0 0.0
2018-Jun-14 22:30N 29°34' W 090°43'0 0.1
2018-Jun-14 22:00N 29°34' W 090°43'2 4.4
2018-Jun-14 21:30N 29°33' W 090°45'4 8.2
2018-Jun-14 21:00N 29°32' W 090°50'0 0.0
2018-Jun-12 23:55N 29°32' W 090°50'3 8.0
2018-Jun-12 23:30N 29°32' W 090°46'3 6.9
2018-Jun-12 23:00N 29°34' W 090°43'0 0.0
2018-Jun-12 22:30N 29°34' W 090°43'0 0.0
2018-Jun-12 22:00N 29°34' W 090°43'0 0.0
2018-Jun-12 21:30N 29°34' W 090°43'2 3.5
2018-Jun-12 21:01N 29°33' W 090°42'0 0.0
2018-Jun-12 20:30N 29°33' W 090°42'0 0.0
2018-Jun-12 20:00N 29°33' W 090°42'0 0.0
2018-Jun-12 19:30N 29°33' W 090°42'0 0.0
2018-Jun-12 19:00N 29°33' W 090°42'2 3.4
2018-Jun-12 18:30N 29°34' W 090°43'3 5.1
2018-Jun-12 18:00N 29°37' W 090°42'2 3.8
2018-Jun-12 17:30N 29°36' W 090°40'2 3.7
2018-Jun-12 17:00N 29°37' W 090°42'2 4.6
2018-Jun-12 16:30N 29°35' W 090°43'2 4.1
2018-Jun-12 16:00N 29°33' W 090°42'0 0.5
2018-Jun-12 15:30N 29°33' W 090°42'0 0.4
2018-Jun-12 15:00N 29°33' W 090°42'0 0.1
2018-Jun-12 14:30N 29°33' W 090°42'0 0.0
2018-Jun-12 14:00N 29°33' W 090°42'0 0.0
2018-Jun-12 13:30N 29°33' W 090°42'0 0.0
2018-Jun-12 13:00N 29°33' W 090°42'0 0.0
2018-Jun-12 12:30N 29°33' W 090°42'0 0.1
2018-Jun-12 12:00N 29°33' W 090°42'0 0.1
2018-Jun-12 11:30N 29°33' W 090°42'0 0.0
2018-Jun-12 11:00N 29°33' W 090°42'0 0.0
2018-Jun-12 10:29N 29°33' W 090°42'0 0.0
2018-Jun-12 10:00N 29°33' W 090°42'0 0.0
2018-Jun-12 09:30N 29°33' W 090°42'0 0.0
2018-Jun-12 09:00N 29°33' W 090°42'0 0.0
2018-Jun-12 08:30N 29°33' W 090°42'0 0.0
2018-Jun-12 08:00N 29°33' W 090°42'0 0.0
2018-Jun-12 07:30N 29°33' W 090°42'0 0.0
2018-Jun-12 07:00N 29°33' W 090°42'0 0.0
2018-Jun-12 06:30N 29°33' W 090°42'0 0.0
2018-Jun-12 06:00N 29°33' W 090°42'0 0.0
2018-Jun-12 05:30N 29°33' W 090°42'0 0.2
2018-Jun-12 05:00N 29°33' W 090°42'0 0.1
2018-Jun-12 04:30N 29°33' W 090°42'0 0.0
2018-Jun-12 04:00N 29°33' W 090°42'0 0.0
2018-Jun-12 03:30N 29°33' W 090°42'0 0.0
2018-Jun-12 03:00N 29°33' W 090°42'0 0.0
2018-Jun-12 02:30N 29°33' W 090°42'0 0.0
2018-Jun-12 01:59N 29°33' W 090°42'0 0.0
2018-Jun-12 01:30N 29°33' W 090°42'0 0.0
2018-Jun-12 01:00N 29°33' W 090°42'0 0.0
2018-Jun-12 00:30N 29°33' W 090°42'0 0.0
2018-Jun-12 00:00N 29°33' W 090°42'0 0.0
2018-Jun-11 23:30N 29°33' W 090°42'0 0.0
2018-Jun-11 23:00N 29°33' W 090°42'0 0.1
2018-Jun-11 22:30N 29°33' W 090°42'4 7.6
2018-Jun-11 22:00N 29°29' W 090°43'4 8.2
2018-Jun-11 21:30N 29°25' W 090°43'2 0.8
2018-Jun-11 18:57N 29°23' W 090°44'4 8.4
2018-Jun-11 18:30N 29°27' W 090°43'4 8.4
2018-Jun-11 18:00N 29°31' W 090°43'2 4.2
2018-Jun-11 17:30N 29°33' W 090°42'0 0.4
2018-Jun-11 17:00N 29°33' W 090°42'0 0.3
2018-Jun-11 16:30N 29°33' W 090°42'  
Track history (hours):
 
Tides and Currents Weather Stations Pressure Air Temp Water Temp Dewpoint Dewpoint Depression Visibility Wind Speed Wind Dir Waves Ship Positions

Crosby Carrier

Owner: Crosby Marine Transportation LLC, Golden Meadow, LA. More information available from US FCC via Universal Licensing System and Coast Guard Vessel Documentation Center.

Last reported at 2018-Jun-21 16:08 UTC. Time now 2018-Jun-22 05:34 UTC.
Position N 29°33' W 090°27'.

Length 21 m; draft 2.3 m.

Type: Ship. MMSI: 367465960.

Date/timePositionNaut miles runAvg speedWind from/ knotsBaromVisibWave heightAir tempDewpointWater temp
2018-Jun-21 16:08N 29°33' W 090°27'1 8.8
2018-Jun-21 16:00N 29°34' W 090°28'4 8.8
2018-Jun-21 15:30N 29°34' W 090°33'4 8.0
2018-Jun-21 15:00N 29°35' W 090°38'4 7.9
2018-Jun-21 14:30N 29°37' W 090°42'3 6.0
2018-Jun-21 14:00N 29°34' W 090°43'1 2.6
2018-Jun-21 13:30N 29°33' W 090°42'0 0.0
2018-Jun-21 13:00N 29°33' W 090°42'0 0.0
2018-Jun-21 12:30N 29°33' W 090°42'0 0.0
2018-Jun-21 12:00N 29°33' W 090°42'0 0.0
2018-Jun-21 11:30N 29°33' W 090°42'0 0.0
2018-Jun-21 11:00N 29°33' W 090°42'0 0.0
2018-Jun-21 10:30N 29°33' W 090°42'0 0.0
2018-Jun-21 10:00N 29°33' W 090°42'0 0.0
2018-Jun-21 09:30N 29°33' W 090°42'0 0.0
2018-Jun-21 09:00N 29°33' W 090°42'0 0.0
2018-Jun-21 08:30N 29°33' W 090°42'0 0.0
2018-Jun-21 08:00N 29°33' W 090°42'0 0.0
2018-Jun-21 07:30N 29°33' W 090°42'0 0.0
2018-Jun-21 07:00N 29°33' W 090°42'0 0.0
2018-Jun-21 06:30N 29°33' W 090°42'0 0.0
2018-Jun-21 06:00N 29°33' W 090°42'0 0.0
2018-Jun-21 05:30N 29°33' W 090°42'0 0.0
2018-Jun-21 05:00N 29°33' W 090°42'0 0.0
2018-Jun-21 04:30N 29°33' W 090°42'0 0.0
2018-Jun-21 04:00N 29°33' W 090°42'0 0.0
2018-Jun-21 03:30N 29°33' W 090°42'0 0.0
2018-Jun-21 03:00N 29°33' W 090°42'0 0.0
2018-Jun-21 02:30N 29°33' W 090°42'0 0.0
2018-Jun-21 02:00N 29°33' W 090°42'0 0.0
2018-Jun-21 01:30N 29°33' W 090°42'0 0.0
2018-Jun-21 01:00N 29°33' W 090°42'0 0.0
2018-Jun-21 00:30N 29°33' W 090°42'3 5.4
2018-Jun-21 00:00N 29°30' W 090°43'4 8.6
2018-Jun-20 23:30N 29°26' W 090°43'3 0.2
2018-Jun-20 06:41N 29°22' W 090°44'1 3.6
2018-Jun-20 06:30N 29°23' W 090°44'2 3.9
2018-Jun-20 06:00N 29°25' W 090°43'2 4.1
2018-Jun-20 05:30N 29°27' W 090°43'2 4.0
2018-Jun-20 05:00N 29°29' W 090°43'2 4.0
2018-Jun-20 04:29N 29°31' W 090°42'2 3.9
2018-Jun-20 04:00N 29°33' W 090°42'1 2.7
2018-Jun-20 03:29N 29°34' W 090°43'0 0.1
2018-Jun-20 03:00N 29°34' W 090°43'0 0.0
2018-Jun-20 02:30N 29°34' W 090°43'0 0.0
2018-Jun-20 02:00N 29°34' W 090°43'0 0.0
2018-Jun-20 01:29N 29°34' W 090°43'0 0.0
2018-Jun-20 00:59N 29°34' W 090°43'0 0.0
2018-Jun-20 00:30N 29°34' W 090°43'0 0.0
2018-Jun-20 00:00N 29°34' W 090°43'0 0.0
2018-Jun-19 23:29N 29°34' W 090°43'0 0.0
2018-Jun-19 23:00N 29°34' W 090°43'0 0.0
2018-Jun-19 22:30N 29°34' W 090°43'0 0.0
2018-Jun-19 21:59N 29°34' W 090°43'0 0.0
2018-Jun-19 21:30N 29°34' W 090°43'0 0.0
2018-Jun-19 21:00N 29°34' W 090°43'0 0.0
2018-Jun-19 20:30N 29°34' W 090°43'0 0.0
2018-Jun-19 20:00N 29°34' W 090°43'0 0.0
2018-Jun-19 19:30N 29°34' W 090°43'0 0.0
2018-Jun-19 19:00N 29°34' W 090°43'0 0.0
2018-Jun-19 18:29N 29°34' W 090°43'0 0.0
2018-Jun-19 18:00N 29°34' W 090°43'0 0.0
2018-Jun-19 17:29N 29°34' W 090°43'0 0.0
2018-Jun-19 17:00N 29°34' W 090°43'0 0.0
2018-Jun-19 16:30N 29°34' W 090°43'0 0.7
2018-Jun-19 16:00N 29°34' W 090°43'3 5.2
2018-Jun-19 15:30N 29°36' W 090°41'3 5.0
2018-Jun-19 15:00N 29°35' W 090°38'2 4.6
2018-Jun-19 14:30N 29°35' W 090°36'0 0.0
2018-Jun-19 14:00N 29°35' W 090°36'0 0.0
2018-Jun-19 13:25N 29°35' W 090°36'0 0.0
2018-Jun-19 11:50N 29°35' W 090°36'0 0.0
2018-Jun-19 11:28N 29°35' W 090°36'0 0.0
2018-Jun-19 11:00N 29°35' W 090°36'0 0.0
2018-Jun-19 10:28N 29°35' W 090°36'0 0.0
2018-Jun-19 09:43N 29°35' W 090°36'0 0.0
2018-Jun-19 09:25N 29°35' W 090°36'0 0.0
2018-Jun-19 08:58N 29°35' W 090°36'0 0.0
2018-Jun-19 08:28N 29°35' W 090°36'0 0.0
2018-Jun-19 08:00N 29°35' W 090°36'0 0.0
2018-Jun-19 07:30N 29°35' W 090°36'0 0.0
2018-Jun-19 06:59N 29°35' W 090°36'0 0.0
2018-Jun-19 06:28N 29°35' W 090°36'0 0.0
2018-Jun-19 05:55N 29°35' W 090°36'0 0.0
2018-Jun-19 05:28N 29°35' W 090°36'0 0.0
2018-Jun-19 04:52N 29°35' W 090°36'0 0.0
2018-Jun-19 04:21N 29°35' W 090°36'0 0.0
2018-Jun-19 03:54N 29°35' W 090°36'0 0.0
2018-Jun-19 03:28N 29°35' W 090°36'0 0.0
2018-Jun-19 03:00N 29°35' W 090°36'0 0.0
2018-Jun-19 02:27N 29°35' W 090°36'0 0.0
2018-Jun-19 01:59N 29°35' W 090°36'0 0.0
2018-Jun-19 01:29N 29°35' W 090°36'0 0.0
2018-Jun-19 00:58N 29°35' W 090°36'0 0.0
2018-Jun-19 00:29N 29°35' W 090°36'0 0.0
2018-Jun-18 23:50N 29°35' W 090°36'0 0.0
2018-Jun-18 23:14N 29°35' W 090°36'0 0.0
2018-Jun-18 23:00N 29°35' W 090°36'0 0.0
2018-Jun-18 22:24N 29°35' W 090°36'0 0.0
2018-Jun-18 21:40N 29°35' W 090°36'0 0.0
2018-Jun-18 21:30N 29°35' W 090°36'0 0.0
2018-Jun-18 20:48N 29°35' W 090°36'0 0.0
2018-Jun-18 20:24N 29°35' W 090°36'0 0.0
2018-Jun-18 19:49N 29°35' W 090°36'0 0.0
2018-Jun-18 19:30N 29°35' W 090°36'0 0.0
2018-Jun-18 18:59N 29°35' W 090°36'0 0.0
2018-Jun-18 18:29N 29°35' W 090°36'0 0.0
2018-Jun-18 17:59N 29°35' W 090°36'0 0.0
2018-Jun-18 17:29N 29°35' W 090°36'0 0.0
2018-Jun-18 17:00N 29°35' W 090°36'0 0.0
2018-Jun-18 16:25N 29°35' W 090°36'0 0.0
2018-Jun-18 15:58N 29°35' W 090°36'0 0.0
2018-Jun-18 15:01N 29°35' W 090°36'0 0.0
2018-Jun-18 14:53N 29°35' W 090°36'0 0.0
2018-Jun-18 14:30N 29°35' W 090°36'0 0.0
2018-Jun-18 14:00N 29°35' W 090°36'0 0.0
2018-Jun-18 13:22N 29°35' W 090°36'0 0.0
2018-Jun-18 12:59N 29°35' W 090°36'0 0.0
2018-Jun-18 12:28N 29°35' W 090°36'0 0.0
2018-Jun-18 11:32N 29°35' W 090°36'0 2.2
2018-Jun-18 11:30N 29°35' W 090°36'0 0.5
2018-Jun-18 11:00N 29°35' W 090°36'1 1.1
2018-Jun-18 10:30N 29°35' W 090°35'3 5.5
2018-Jun-18 10:00N 29°34' W 090°32'3 5.3
2018-Jun-18 09:30N 29°34' W 090°29'3 5.5
2018-Jun-18 08:58N 29°33' W 090°26'2 0.1
2018-Jun-16 22:42N 29°34' W 090°29'2 8.9
2018-Jun-16 22:29N 29°34' W 090°31'4 8.4
2018-Jun-16 22:00N 29°35' W 090°35'4 8.3
2018-Jun-16 21:30N 29°36' W 090°40'3 5.4
2018-Jun-16 21:00N 29°35' W 090°43'3 5.3
2018-Jun-16 20:30N 29°33' W 090°42'0 0.0
2018-Jun-16 20:00N 29°33' W 090°42'0 0.0
2018-Jun-16 19:30N 29°33' W 090°42'0 0.0
2018-Jun-16 19:00N 29°33' W 090°42'0 0.0
2018-Jun-16 18:30N 29°33' W 090°42'0 0.0
2018-Jun-16 18:00N 29°33' W 090°42'0 0.0
2018-Jun-16 17:30N 29°33' W 090°42'0 0.0
2018-Jun-16 17:00N 29°33' W 090°42'0 0.0
2018-Jun-16 16:30N 29°33' W 090°42'0 0.0
2018-Jun-16 16:00N 29°33' W 090°42'2 3.2
2018-Jun-16 15:30N 29°34' W 090°43'2 4.9
2018-Jun-16 15:00N 29°33' W 090°45'4 7.5
2018-Jun-16 14:30N 29°32' W 090°50'2 0.1
2018-Jun-15 14:53N 29°32' W 090°52'3 8.1
2018-Jun-15 14:30N 29°32' W 090°48'4 7.1
2018-Jun-15 14:00N 29°34' W 090°45'2 3.2
2018-Jun-15 13:30N 29°34' W 090°43'1 2.4
2018-Jun-15 13:00N 29°33' W 090°42'0 0.0
2018-Jun-15 12:30N 29°33' W 090°42'0 0.0
2018-Jun-15 12:00N 29°33' W 090°42'0 0.0
2018-Jun-15 11:30N 29°33' W 090°42'0 0.0
2018-Jun-15 11:00N 29°33' W 090°42'0 0.0
2018-Jun-15 10:30N 29°33' W 090°42'0 0.0
2018-Jun-15 10:00N 29°33' W 090°42'0 0.0
2018-Jun-15 09:30N 29°33' W 090°42'0 0.0
2018-Jun-15 09:00N 29°33' W 090°42'0 0.0
2018-Jun-15 08:30N 29°33' W 090°42'0 0.0
2018-Jun-15 08:00N 29°33' W 090°42'0 0.0
2018-Jun-15 07:30N 29°33' W 090°42'0 0.0
2018-Jun-15 07:00N 29°33' W 090°42'0 0.0
2018-Jun-15 06:30N 29°33' W 090°42'0 0.0
2018-Jun-15 06:00N 29°33' W 090°42'0 0.0
2018-Jun-15 05:30N 29°33' W 090°42'0 0.0
2018-Jun-15 05:00N 29°33' W 090°42'0 0.0
2018-Jun-15 04:30N 29°33' W 090°42'0 0.0
2018-Jun-15 04:00N 29°33' W 090°42'0 0.0
2018-Jun-15 03:30N 29°33' W 090°42'0 0.0
2018-Jun-15 03:00N 29°33' W 090°42'0 0.0
2018-Jun-15 02:30N 29°33' W 090°42'1 1.7
2018-Jun-15 02:00N 29°33' W 090°43'3 6.7
2018-Jun-15 01:30N 29°37' W 090°42'2 3.7
2018-Jun-15 01:00N 29°36' W 090°40'0 0.0
2018-Jun-15 00:30N 29°36' W 090°40'0 0.0
2018-Jun-15 00:00N 29°36' W 090°40'2 4.9
2018-Jun-14 23:30N 29°36' W 090°43'2 4.1
2018-Jun-14 23:00N 29°34' W 090°43'0 0.0
2018-Jun-14 22:30N 29°34' W 090°43'0 0.1
2018-Jun-14 22:00N 29°34' W 090°43'2 4.4
2018-Jun-14 21:30N 29°33' W 090°45'4 8.2
2018-Jun-14 21:00N 29°32' W 090°50'0 0.0
2018-Jun-12 23:55N 29°32' W 090°50'3 8.0
2018-Jun-12 23:30N 29°32' W 090°46'3 6.9
2018-Jun-12 23:00N 29°34' W 090°43'0 0.0
2018-Jun-12 22:30N 29°34' W 090°43'0 0.0
2018-Jun-12 22:00N 29°34' W 090°43'0 0.0
2018-Jun-12 21:30N 29°34' W 090°43'2 3.5
2018-Jun-12 21:01N 29°33' W 090°42'0 0.0
2018-Jun-12 20:30N 29°33' W 090°42'0 0.0
2018-Jun-12 20:00N 29°33' W 090°42'0 0.0
2018-Jun-12 19:30N 29°33' W 090°42'0 0.0
2018-Jun-12 19:00N 29°33' W 090°42'2 3.4
2018-Jun-12 18:30N 29°34' W 090°43'3 5.1
2018-Jun-12 18:00N 29°37' W 090°42'2 3.8
2018-Jun-12 17:30N 29°36' W 090°40'2 3.7
2018-Jun-12 17:00N 29°37' W 090°42'2 4.6
2018-Jun-12 16:30N 29°35' W 090°43'2 4.1
2018-Jun-12 16:00N 29°33' W 090°42'0 0.5
2018-Jun-12 15:30N 29°33' W 090°42'0 0.4
2018-Jun-12 15:00N 29°33' W 090°42'0 0.1
2018-Jun-12 14:30N 29°33' W 090°42'0 0.0
2018-Jun-12 14:00N 29°33' W 090°42'0 0.0
2018-Jun-12 13:30N 29°33' W 090°42'0 0.0
2018-Jun-12 13:00N 29°33' W 090°42'0 0.0
2018-Jun-12 12:30N 29°33' W 090°42'0 0.1
2018-Jun-12 12:00N 29°33' W 090°42'0 0.1
2018-Jun-12 11:30N 29°33' W 090°42'0 0.0
2018-Jun-12 11:00N 29°33' W 090°42'0 0.0
2018-Jun-12 10:29N 29°33' W 090°42'0 0.0
2018-Jun-12 10:00N 29°33' W 090°42'0 0.0
2018-Jun-12 09:30N 29°33' W 090°42'0 0.0
2018-Jun-12 09:00N 29°33' W 090°42'0 0.0
2018-Jun-12 08:30N 29°33' W 090°42'0 0.0
2018-Jun-12 08:00N 29°33' W 090°42'0 0.0
2018-Jun-12 07:30N 29°33' W 090°42'0 0.0
2018-Jun-12 07:00N 29°33' W 090°42'0 0.0
2018-Jun-12 06:30N 29°33' W 090°42'0 0.0
2018-Jun-12 06:00N 29°33' W 090°42'0 0.0
2018-Jun-12 05:30N 29°33' W 090°42'0 0.2
2018-Jun-12 05:00N 29°33' W 090°42'0 0.1
2018-Jun-12 04:30N 29°33' W 090°42'0 0.0
2018-Jun-12 04:00N 29°33' W 090°42'0 0.0
2018-Jun-12 03:30N 29°33' W 090°42'0 0.0
2018-Jun-12 03:00N 29°33' W 090°42'0 0.0
2018-Jun-12 02:30N 29°33' W 090°42'0 0.0
2018-Jun-12 01:59N 29°33' W 090°42'0 0.0
2018-Jun-12 01:30N 29°33' W 090°42'0 0.0
2018-Jun-12 01:00N 29°33' W 090°42'0 0.0
2018-Jun-12 00:30N 29°33' W 090°42'0 0.0
2018-Jun-12 00:00N 29°33' W 090°42'0 0.0
2018-Jun-11 23:30N 29°33' W 090°42'0 0.0
2018-Jun-11 23:00N 29°33' W 090°42'0 0.1
2018-Jun-11 22:30N 29°33' W 090°42'4 7.6
2018-Jun-11 22:00N 29°29' W 090°43'4 8.2
2018-Jun-11 21:30N 29°25' W 090°43'2 0.8
2018-Jun-11 18:57N 29°23' W 090°44'4 8.4
2018-Jun-11 18:30N 29°27' W 090°43'4 8.4
2018-Jun-11 18:00N 29°31' W 090°43'2 4.2
2018-Jun-11 17:30N 29°33' W 090°42'0 0.4
2018-Jun-11 17:00N 29°33' W 090°42'0 0.3
2018-Jun-11 16:30N 29°33' W 090°42'  

Dump ship's entire track history